sensor_id;sensor_type;location;lat;lon;timestamp;P1;durP1;ratioP1;P2;durP2;ratioP2
29574;SDS011;16507;51.046;6.406;2022-09-02T00:00:55;2.53;;;0.70;;
29574;SDS011;16507;51.046;6.406;2022-09-02T00:03:25;0.90;;;0.80;;
29574;SDS011;16507;51.046;6.406;2022-09-02T00:05:51;0.90;;;0.85;;
29574;SDS011;16507;51.046;6.406;2022-09-02T00:08:17;1.05;;;0.82;;
29574;SDS011;16507;51.046;6.406;2022-09-02T00:10:43;1.63;;;0.85;;
29574;SDS011;16507;51.046;6.406;2022-09-02T00:13:10;2.05;;;0.70;;
29574;SDS011;16507;51.046;6.406;2022-09-02T00:15:37;1.15;;;0.80;;
29574;SDS011;16507;51.046;6.406;2022-09-02T00:18:03;1.33;;;0.77;;
29574;SDS011;16507;51.046;6.406;2022-09-02T00:20:30;10.65;;;0.82;;
29574;SDS011;16507;51.046;6.406;2022-09-02T00:22:56;0.82;;;0.80;;
29574;SDS011;16507;51.046;6.406;2022-09-02T00:25:22;2.60;;;0.70;;
29574;SDS011;16507;51.046;6.406;2022-09-02T00:27:48;0.80;;;0.70;;
29574;SDS011;16507;51.046;6.406;2022-09-02T00:30:15;1.00;;;1.00;;
29574;SDS011;16507;51.046;6.406;2022-09-02T00:32:41;1.52;;;0.80;;
29574;SDS011;16507;51.046;6.406;2022-09-02T00:35:07;0.88;;;0.60;;
29574;SDS011;16507;51.046;6.406;2022-09-02T00:37:34;0.88;;;0.75;;
29574;SDS011;16507;51.046;6.406;2022-09-02T00:40:00;2.72;;;1.00;;
29574;SDS011;16507;51.046;6.406;2022-09-02T00:42:27;1.55;;;0.80;;
29574;SDS011;16507;51.046;6.406;2022-09-02T00:44:52;5.07;;;0.70;;
29574;SDS011;16507;51.046;6.406;2022-09-02T00:47:18;5.35;;;1.00;;
29574;SDS011;16507;51.046;6.406;2022-09-02T00:49:45;0.75;;;0.70;;
29574;SDS011;16507;51.046;6.406;2022-09-02T00:54:51;1.20;;;0.88;;
29574;SDS011;16507;51.046;6.406;2022-09-02T00:57:24;2.03;;;0.70;;
29574;SDS011;16507;51.046;6.406;2022-09-02T00:59:56;6.38;;;0.98;;
29574;SDS011;16507;51.046;6.406;2022-09-02T01:02:28;1.40;;;0.50;;
29574;SDS011;16507;51.046;6.406;2022-09-02T01:04:56;2.40;;;0.77;;
29574;SDS011;16507;51.046;6.406;2022-09-02T01:07:25;2.00;;;0.90;;
29574;SDS011;16507;51.046;6.406;2022-09-02T01:09:54;5.25;;;0.80;;
29574;SDS011;16507;51.046;6.406;2022-09-02T01:12:21;4.30;;;0.95;;
29574;SDS011;16507;51.046;6.406;2022-09-02T01:14:48;2.17;;;0.70;;
29574;SDS011;16507;51.046;6.406;2022-09-02T01:17:14;0.80;;;0.80;;
29574;SDS011;16507;51.046;6.406;2022-09-02T01:19:43;3.03;;;0.82;;
29574;SDS011;16507;51.046;6.406;2022-09-02T01:22:17;1.08;;;0.75;;
29574;SDS011;16507;51.046;6.406;2022-09-02T01:24:44;0.90;;;0.70;;
29574;SDS011;16507;51.046;6.406;2022-09-02T01:27:13;3.78;;;1.00;;
29574;SDS011;16507;51.046;6.406;2022-09-02T01:29:40;1.23;;;0.82;;
29574;SDS011;16507;51.046;6.406;2022-09-02T01:32:06;1.67;;;0.90;;
29574;SDS011;16507;51.046;6.406;2022-09-02T01:34:32;1.45;;;0.75;;
29574;SDS011;16507;51.046;6.406;2022-09-02T01:36:58;10.00;;;1.33;;
29574;SDS011;16507;51.046;6.406;2022-09-02T01:39:23;2.10;;;0.80;;
29574;SDS011;16507;51.046;6.406;2022-09-02T01:41:49;5.38;;;0.90;;
29574;SDS011;16507;51.046;6.406;2022-09-02T01:44:15;0.70;;;0.70;;
29574;SDS011;16507;51.046;6.406;2022-09-02T01:46:41;0.82;;;0.70;;
29574;SDS011;16507;51.046;6.406;2022-09-02T01:49:08;1.70;;;0.93;;
29574;SDS011;16507;51.046;6.406;2022-09-02T01:51:34;6.90;;;0.90;;
29574;SDS011;16507;51.046;6.406;2022-09-02T01:54:00;6.60;;;0.85;;
29574;SDS011;16507;51.046;6.406;2022-09-02T01:56:26;3.42;;;1.00;;
29574;SDS011;16507;51.046;6.406;2022-09-02T01:58:51;1.13;;;0.82;;
29574;SDS011;16507;51.046;6.406;2022-09-02T02:01:17;5.00;;;0.90;;
29574;SDS011;16507;51.046;6.406;2022-09-02T02:03:43;2.00;;;0.70;;
29574;SDS011;16507;51.046;6.406;2022-09-02T02:06:09;2.20;;;0.80;;
29574;SDS011;16507;51.046;6.406;2022-09-02T02:08:36;1.63;;;0.75;;
29574;SDS011;16507;51.046;6.406;2022-09-02T02:11:03;1.65;;;0.82;;
29574;SDS011;16507;51.046;6.406;2022-09-02T02:13:29;1.85;;;0.88;;
29574;SDS011;16507;51.046;6.406;2022-09-02T02:15:55;8.05;;;1.27;;
29574;SDS011;16507;51.046;6.406;2022-09-02T02:18:20;1.40;;;0.70;;
29574;SDS011;16507;51.046;6.406;2022-09-02T02:20:46;2.55;;;0.90;;
29574;SDS011;16507;51.046;6.406;2022-09-02T02:23:12;1.17;;;0.80;;
29574;SDS011;16507;51.046;6.406;2022-09-02T02:25:38;2.78;;;0.80;;
29574;SDS011;16507;51.046;6.406;2022-09-02T02:28:04;3.20;;;0.85;;
29574;SDS011;16507;51.046;6.406;2022-09-02T02:30:30;5.53;;;0.90;;
29574;SDS011;16507;51.046;6.406;2022-09-02T02:32:56;4.32;;;1.02;;
29574;SDS011;16507;51.046;6.406;2022-09-02T02:35:22;1.60;;;0.88;;
29574;SDS011;16507;51.046;6.406;2022-09-02T02:37:48;4.93;;;0.80;;
29574;SDS011;16507;51.046;6.406;2022-09-02T02:40:15;1.58;;;0.80;;
29574;SDS011;16507;51.046;6.406;2022-09-02T02:42:44;3.03;;;0.85;;
29574;SDS011;16507;51.046;6.406;2022-09-02T02:45:10;4.68;;;0.80;;
29574;SDS011;16507;51.046;6.406;2022-09-02T02:47:40;3.78;;;0.80;;
29574;SDS011;16507;51.046;6.406;2022-09-02T02:50:08;0.70;;;0.70;;
29574;SDS011;16507;51.046;6.406;2022-09-02T02:52:36;2.55;;;1.02;;
29574;SDS011;16507;51.046;6.406;2022-09-02T02:55:06;3.28;;;1.00;;
29574;SDS011;16507;51.046;6.406;2022-09-02T02:57:33;7.72;;;1.05;;
29574;SDS011;16507;51.046;6.406;2022-09-02T03:02:37;2.17;;;0.90;;
29574;SDS011;16507;51.046;6.406;2022-09-02T03:05:03;2.25;;;1.08;;
29574;SDS011;16507;51.046;6.406;2022-09-02T03:07:30;0.80;;;0.80;;
29574;SDS011;16507;51.046;6.406;2022-09-02T03:09:56;2.67;;;0.82;;
29574;SDS011;16507;51.046;6.406;2022-09-02T03:12:22;5.75;;;0.80;;
29574;SDS011;16507;51.046;6.406;2022-09-02T03:14:49;0.80;;;0.80;;
29574;SDS011;16507;51.046;6.406;2022-09-02T03:17:15;1.20;;;0.88;;
29574;SDS011;16507;51.046;6.406;2022-09-02T03:19:41;2.05;;;0.80;;
29574;SDS011;16507;51.046;6.406;2022-09-02T03:22:06;5.32;;;0.95;;
29574;SDS011;16507;51.046;6.406;2022-09-02T03:24:34;2.58;;;0.77;;
29574;SDS011;16507;51.046;6.406;2022-09-02T03:27:01;1.25;;;0.90;;
29574;SDS011;16507;51.046;6.406;2022-09-02T03:29:28;1.17;;;0.90;;
29574;SDS011;16507;51.046;6.406;2022-09-02T03:31:54;2.97;;;0.90;;
29574;SDS011;16507;51.046;6.406;2022-09-02T03:34:19;4.50;;;1.13;;
29574;SDS011;16507;51.046;6.406;2022-09-02T03:36:45;5.03;;;1.08;;
29574;SDS011;16507;51.046;6.406;2022-09-02T03:39:11;6.53;;;1.20;;
29574;SDS011;16507;51.046;6.406;2022-09-02T03:41:38;5.65;;;1.00;;
29574;SDS011;16507;51.046;6.406;2022-09-02T03:44:07;3.40;;;1.10;;
29574;SDS011;16507;51.046;6.406;2022-09-02T03:46:33;2.72;;;0.93;;
29574;SDS011;16507;51.046;6.406;2022-09-02T03:48:59;3.22;;;1.00;;
29574;SDS011;16507;51.046;6.406;2022-09-02T03:51:25;1.10;;;0.90;;
29574;SDS011;16507;51.046;6.406;2022-09-02T03:53:52;4.38;;;1.08;;
29574;SDS011;16507;51.046;6.406;2022-09-02T03:56:18;2.00;;;1.10;;
29574;SDS011;16507;51.046;6.406;2022-09-02T03:58:45;5.53;;;1.10;;
29574;SDS011;16507;51.046;6.406;2022-09-02T04:01:14;10.55;;;1.17;;
29574;SDS011;16507;51.046;6.406;2022-09-02T04:03:41;3.63;;;1.50;;
29574;SDS011;16507;51.046;6.406;2022-09-02T04:06:08;6.32;;;1.40;;
29574;SDS011;16507;51.046;6.406;2022-09-02T04:08:36;22.00;;;1.55;;
29574;SDS011;16507;51.046;6.406;2022-09-02T04:11:04;6.88;;;1.50;;
29574;SDS011;16507;51.046;6.406;2022-09-02T04:13:32;4.82;;;1.33;;
29574;SDS011;16507;51.046;6.406;2022-09-02T04:15:58;5.18;;;1.20;;
29574;SDS011;16507;51.046;6.406;2022-09-02T04:18:23;18.90;;;2.35;;
29574;SDS011;16507;51.046;6.406;2022-09-02T04:20:49;4.80;;;1.27;;
29574;SDS011;16507;51.046;6.406;2022-09-02T04:23:15;17.10;;;1.77;;
29574;SDS011;16507;51.046;6.406;2022-09-02T04:25:41;3.85;;;1.40;;
29574;SDS011;16507;51.046;6.406;2022-09-02T04:28:08;2.83;;;1.98;;
29574;SDS011;16507;51.046;6.406;2022-09-02T04:30:36;1.60;;;1.20;;
29574;SDS011;16507;51.046;6.406;2022-09-02T04:33:03;2.65;;;1.25;;
29574;SDS011;16507;51.046;6.406;2022-09-02T04:35:28;6.25;;;1.42;;
29574;SDS011;16507;51.046;6.406;2022-09-02T04:37:54;19.40;;;2.08;;
29574;SDS011;16507;51.046;6.406;2022-09-02T04:40:20;8.18;;;1.50;;
29574;SDS011;16507;51.046;6.406;2022-09-02T04:42:46;7.25;;;1.80;;
29574;SDS011;16507;51.046;6.406;2022-09-02T04:45:11;6.30;;;1.77;;
29574;SDS011;16507;51.046;6.406;2022-09-02T04:47:37;22.27;;;2.92;;
29574;SDS011;16507;51.046;6.406;2022-09-02T04:50:03;11.80;;;1.40;;
29574;SDS011;16507;51.046;6.406;2022-09-02T04:52:30;8.77;;;1.60;;
29574;SDS011;16507;51.046;6.406;2022-09-02T04:54:56;9.40;;;1.50;;
29574;SDS011;16507;51.046;6.406;2022-09-02T04:57:21;5.05;;;1.80;;
29574;SDS011;16507;51.046;6.406;2022-09-02T04:59:47;17.27;;;1.60;;
29574;SDS011;16507;51.046;6.406;2022-09-02T05:02:12;14.43;;;1.90;;
29574;SDS011;16507;51.046;6.406;2022-09-02T05:04:39;10.00;;;1.30;;
29574;SDS011;16507;51.046;6.406;2022-09-02T05:07:04;14.45;;;1.63;;
29574;SDS011;16507;51.046;6.406;2022-09-02T05:09:30;2.72;;;1.17;;
29574;SDS011;16507;51.046;6.406;2022-09-02T05:11:56;5.85;;;1.50;;
29574;SDS011;16507;51.046;6.406;2022-09-02T05:14:23;17.75;;;1.85;;
29574;SDS011;16507;51.046;6.406;2022-09-02T05:16:49;1.85;;;1.02;;
29574;SDS011;16507;51.046;6.406;2022-09-02T05:19:21;3.97;;;1.50;;
29574;SDS011;16507;51.046;6.406;2022-09-02T05:21:48;7.70;;;1.63;;
29574;SDS011;16507;51.046;6.406;2022-09-02T05:24:16;12.38;;;1.55;;
29574;SDS011;16507;51.046;6.406;2022-09-02T05:26:42;4.55;;;1.90;;
29574;SDS011;16507;51.046;6.406;2022-09-02T05:29:09;6.35;;;1.50;;
29574;SDS011;16507;51.046;6.406;2022-09-02T05:31:36;3.20;;;1.02;;
29574;SDS011;16507;51.046;6.406;2022-09-02T05:34:02;4.72;;;1.20;;
29574;SDS011;16507;51.046;6.406;2022-09-02T05:36:28;10.02;;;1.42;;
29574;SDS011;16507;51.046;6.406;2022-09-02T05:38:56;5.65;;;1.50;;
29574;SDS011;16507;51.046;6.406;2022-09-02T05:41:23;9.98;;;2.08;;
29574;SDS011;16507;51.046;6.406;2022-09-02T05:43:50;8.27;;;1.50;;
29574;SDS011;16507;51.046;6.406;2022-09-02T05:46:19;24.15;;;1.92;;
29574;SDS011;16507;51.046;6.406;2022-09-02T05:48:47;9.88;;;1.35;;
29574;SDS011;16507;51.046;6.406;2022-09-02T05:52:06;21.67;;;1.60;;
29574;SDS011;16507;51.046;6.406;2022-09-02T05:54:28;5.93;;;1.25;;
29574;SDS011;16507;51.046;6.406;2022-09-02T05:57:00;15.20;;;1.48;;
29574;SDS011;16507;51.046;6.406;2022-09-02T06:01:55;10.65;;;1.42;;
29574;SDS011;16507;51.046;6.406;2022-09-02T06:04:22;1.23;;;1.00;;
29574;SDS011;16507;51.046;6.406;2022-09-02T06:06:48;3.33;;;1.33;;
29574;SDS011;16507;51.046;6.406;2022-09-02T06:09:16;3.20;;;1.30;;
29574;SDS011;16507;51.046;6.406;2022-09-02T06:11:44;11.07;;;1.50;;
29574;SDS011;16507;51.046;6.406;2022-09-02T06:14:13;3.75;;;1.30;;
29574;SDS011;16507;51.046;6.406;2022-09-02T06:16:43;5.68;;;1.27;;
29574;SDS011;16507;51.046;6.406;2022-09-02T06:19:09;8.05;;;1.40;;
29574;SDS011;16507;51.046;6.406;2022-09-02T06:21:36;6.85;;;1.02;;
29574;SDS011;16507;51.046;6.406;2022-09-02T06:24:06;1.10;;;1.00;;
29574;SDS011;16507;51.046;6.406;2022-09-02T06:26:33;10.60;;;1.60;;
29574;SDS011;16507;51.046;6.406;2022-09-02T06:29:00;2.30;;;0.82;;
29574;SDS011;16507;51.046;6.406;2022-09-02T06:31:27;1.40;;;1.30;;
29574;SDS011;16507;51.046;6.406;2022-09-02T06:33:53;5.25;;;0.90;;
29574;SDS011;16507;51.046;6.406;2022-09-02T06:36:20;4.97;;;0.98;;
29574;SDS011;16507;51.046;6.406;2022-09-02T06:38:49;1.52;;;1.23;;
29574;SDS011;16507;51.046;6.406;2022-09-02T06:41:17;3.83;;;1.15;;
29574;SDS011;16507;51.046;6.406;2022-09-02T06:43:47;3.45;;;1.48;;
29574;SDS011;16507;51.046;6.406;2022-09-02T06:46:18;7.82;;;1.27;;
29574;SDS011;16507;51.046;6.406;2022-09-02T06:48:45;2.28;;;1.27;;
29574;SDS011;16507;51.046;6.406;2022-09-02T06:51:36;8.50;;;1.10;;
29574;SDS011;16507;51.046;6.406;2022-09-02T06:54:04;2.88;;;1.00;;
29574;SDS011;16507;51.046;6.406;2022-09-02T06:56:32;8.85;;;1.42;;
29574;SDS011;16507;51.046;6.406;2022-09-02T06:58:58;10.30;;;1.48;;
29574;SDS011;16507;51.046;6.406;2022-09-02T07:01:26;5.13;;;1.30;;
29574;SDS011;16507;51.046;6.406;2022-09-02T07:03:54;3.45;;;1.40;;
29574;SDS011;16507;51.046;6.406;2022-09-02T07:06:41;2.53;;;1.10;;
29574;SDS011;16507;51.046;6.406;2022-09-02T07:09:09;4.28;;;1.00;;
29574;SDS011;16507;51.046;6.406;2022-09-02T07:11:37;2.30;;;1.20;;
29574;SDS011;16507;51.046;6.406;2022-09-02T07:14:03;5.05;;;1.55;;
29574;SDS011;16507;51.046;6.406;2022-09-02T07:16:31;5.72;;;1.25;;
29574;SDS011;16507;51.046;6.406;2022-09-02T07:18:59;4.43;;;1.85;;
29574;SDS011;16507;51.046;6.406;2022-09-02T07:21:27;2.78;;;0.95;;
29574;SDS011;16507;51.046;6.406;2022-09-02T07:23:54;9.23;;;1.13;;
29574;SDS011;16507;51.046;6.406;2022-09-02T07:26:20;5.80;;;1.35;;
29574;SDS011;16507;51.046;6.406;2022-09-02T07:28:46;5.30;;;1.10;;
29574;SDS011;16507;51.046;6.406;2022-09-02T07:31:13;5.80;;;1.20;;
29574;SDS011;16507;51.046;6.406;2022-09-02T07:33:40;1.35;;;1.10;;
29574;SDS011;16507;51.046;6.406;2022-09-02T07:36:08;1.27;;;1.05;;
29574;SDS011;16507;51.046;6.406;2022-09-02T07:38:34;5.88;;;1.27;;
29574;SDS011;16507;51.046;6.406;2022-09-02T07:41:01;3.58;;;0.95;;
29574;SDS011;16507;51.046;6.406;2022-09-02T07:43:27;1.60;;;0.88;;
29574;SDS011;16507;51.046;6.406;2022-09-02T07:45:55;5.22;;;1.00;;
29574;SDS011;16507;51.046;6.406;2022-09-02T07:48:22;4.30;;;1.27;;
29574;SDS011;16507;51.046;6.406;2022-09-02T07:50:48;6.75;;;1.27;;
29574;SDS011;16507;51.046;6.406;2022-09-02T07:53:15;4.00;;;1.00;;
29574;SDS011;16507;51.046;6.406;2022-09-02T07:55:42;8.10;;;1.10;;
29574;SDS011;16507;51.046;6.406;2022-09-02T07:58:08;2.17;;;1.10;;
29574;SDS011;16507;51.046;6.406;2022-09-02T08:00:34;7.82;;;1.27;;
29574;SDS011;16507;51.046;6.406;2022-09-02T08:03:01;3.90;;;0.98;;
29574;SDS011;16507;51.046;6.406;2022-09-02T08:05:27;7.00;;;1.25;;
29574;SDS011;16507;51.046;6.406;2022-09-02T08:07:53;4.53;;;1.10;;
29574;SDS011;16507;51.046;6.406;2022-09-02T08:10:19;2.00;;;1.08;;
29574;SDS011;16507;51.046;6.406;2022-09-02T08:12:46;4.10;;;1.20;;
29574;SDS011;16507;51.046;6.406;2022-09-02T08:15:12;3.60;;;1.10;;
29574;SDS011;16507;51.046;6.406;2022-09-02T08:17:38;3.72;;;1.27;;
29574;SDS011;16507;51.046;6.406;2022-09-02T08:20:08;1.67;;;0.98;;
29574;SDS011;16507;51.046;6.406;2022-09-02T08:22:36;3.78;;;1.10;;
29574;SDS011;16507;51.046;6.406;2022-09-02T08:25:02;4.68;;;1.00;;
29574;SDS011;16507;51.046;6.406;2022-09-02T08:27:28;1.55;;;1.13;;
29574;SDS011;16507;51.046;6.406;2022-09-02T08:29:56;9.13;;;1.80;;
29574;SDS011;16507;51.046;6.406;2022-09-02T08:32:22;3.92;;;1.45;;
29574;SDS011;16507;51.046;6.406;2022-09-02T08:34:48;2.42;;;1.00;;
29574;SDS011;16507;51.046;6.406;2022-09-02T08:37:14;4.00;;;1.38;;
29574;SDS011;16507;51.046;6.406;2022-09-02T08:39:42;4.65;;;1.13;;
29574;SDS011;16507;51.046;6.406;2022-09-02T08:42:13;3.03;;;1.38;;
29574;SDS011;16507;51.046;6.406;2022-09-02T08:44:43;2.95;;;1.20;;
29574;SDS011;16507;51.046;6.406;2022-09-02T08:47:17;2.25;;;1.05;;
29574;SDS011;16507;51.046;6.406;2022-09-02T08:49:47;4.43;;;1.23;;
29574;SDS011;16507;51.046;6.406;2022-09-02T08:52:23;4.05;;;1.40;;
29574;SDS011;16507;51.046;6.406;2022-09-02T08:55:02;5.55;;;1.20;;
29574;SDS011;16507;51.046;6.406;2022-09-02T08:57:30;8.75;;;1.33;;
29574;SDS011;16507;51.046;6.406;2022-09-02T08:59:57;6.63;;;1.00;;
29574;SDS011;16507;51.046;6.406;2022-09-02T09:02:38;1.83;;;1.00;;
29574;SDS011;16507;51.046;6.406;2022-09-02T09:16:25;2.88;;;1.20;;
29574;SDS011;16507;51.046;6.406;2022-09-02T09:18:58;3.10;;;0.90;;
29574;SDS011;16507;51.046;6.406;2022-09-02T09:21:34;3.75;;;0.90;;
29574;SDS011;16507;51.046;6.406;2022-09-02T09:24:01;4.80;;;1.00;;
29574;SDS011;16507;51.046;6.406;2022-09-02T09:26:32;1.95;;;0.82;;
29574;SDS011;16507;51.046;6.406;2022-09-02T09:29:03;1.48;;;0.80;;
29574;SDS011;16507;51.046;6.406;2022-09-02T09:31:29;2.15;;;0.88;;
29574;SDS011;16507;51.046;6.406;2022-09-02T09:41:51;3.90;;;0.80;;
29574;SDS011;16507;51.046;6.406;2022-09-02T09:47:19;12.45;;;1.10;;
29574;SDS011;16507;51.046;6.406;2022-09-02T09:50:09;9.40;;;1.20;;
29574;SDS011;16507;51.046;6.406;2022-09-02T09:52:43;5.97;;;0.85;;
29574;SDS011;16507;51.046;6.406;2022-09-02T09:55:16;6.03;;;1.10;;
29574;SDS011;16507;51.046;6.406;2022-09-02T09:57:49;2.88;;;0.85;;
29574;SDS011;16507;51.046;6.406;2022-09-02T10:02:46;2.33;;;0.80;;
29574;SDS011;16507;51.046;6.406;2022-09-02T10:07:52;1.13;;;0.90;;
29574;SDS011;16507;51.046;6.406;2022-09-02T10:10:27;11.00;;;1.00;;
29574;SDS011;16507;51.046;6.406;2022-09-02T10:12:56;8.38;;;1.10;;
29574;SDS011;16507;51.046;6.406;2022-09-02T10:21:12;5.30;;;0.68;;
29574;SDS011;16507;51.046;6.406;2022-09-02T10:27:01;4.53;;;0.85;;
29574;SDS011;16507;51.046;6.406;2022-09-02T10:30:01;7.88;;;0.82;;
29574;SDS011;16507;51.046;6.406;2022-09-02T10:35:32;0.80;;;0.80;;
29574;SDS011;16507;51.046;6.406;2022-09-02T10:40:45;10.95;;;0.57;;
29574;SDS011;16507;51.046;6.406;2022-09-02T10:43:38;8.43;;;0.93;;
29574;SDS011;16507;51.046;6.406;2022-09-02T10:46:27;0.80;;;0.70;;
29574;SDS011;16507;51.046;6.406;2022-09-02T10:49:11;8.60;;;0.88;;
29574;SDS011;16507;51.046;6.406;2022-09-02T10:51:56;1.40;;;0.80;;
29574;SDS011;16507;51.046;6.406;2022-09-02T10:57:18;0.63;;;0.50;;
29574;SDS011;16507;51.046;6.406;2022-09-02T11:00:00;8.43;;;0.82;;
29574;SDS011;16507;51.046;6.406;2022-09-02T11:05:19;2.83;;;0.77;;
29574;SDS011;16507;51.046;6.406;2022-09-02T11:08:06;16.33;;;0.90;;
29574;SDS011;16507;51.046;6.406;2022-09-02T11:10:55;15.95;;;1.17;;
29574;SDS011;16507;51.046;6.406;2022-09-02T11:13:30;3.20;;;0.60;;
29574;SDS011;16507;51.046;6.406;2022-09-02T11:16:10;4.47;;;1.00;;
29574;SDS011;16507;51.046;6.406;2022-09-02T11:18:48;7.18;;;1.00;;
29574;SDS011;16507;51.046;6.406;2022-09-02T11:21:37;4.78;;;0.70;;
29574;SDS011;16507;51.046;6.406;2022-09-02T11:24:13;11.18;;;0.65;;
29574;SDS011;16507;51.046;6.406;2022-09-02T11:26:52;4.57;;;0.68;;
29574;SDS011;16507;51.046;6.406;2022-09-02T11:32:19;4.22;;;0.80;;
29574;SDS011;16507;51.046;6.406;2022-09-02T11:34:59;3.67;;;0.50;;
29574;SDS011;16507;51.046;6.406;2022-09-02T11:43:15;0.60;;;0.60;;
29574;SDS011;16507;51.046;6.406;2022-09-02T11:45:51;4.45;;;0.80;;
29574;SDS011;16507;51.046;6.406;2022-09-02T11:48:49;19.58;;;1.08;;
29574;SDS011;16507;51.046;6.406;2022-09-02T11:53:49;4.45;;;0.80;;
29574;SDS011;16507;51.046;6.406;2022-09-02T11:56:22;4.47;;;0.63;;
29574;SDS011;16507;51.046;6.406;2022-09-02T11:58:53;3.95;;;0.45;;
29574;SDS011;16507;51.046;6.406;2022-09-02T12:03:55;4.78;;;0.85;;
29574;SDS011;16507;51.046;6.406;2022-09-02T12:06:37;2.35;;;1.15;;
29574;SDS011;16507;51.046;6.406;2022-09-02T12:15:12;1.52;;;0.57;;
29574;SDS011;16507;51.046;6.406;2022-09-02T12:18:04;0.93;;;0.70;;
29574;SDS011;16507;51.046;6.406;2022-09-02T12:23:03;6.45;;;0.60;;
29574;SDS011;16507;51.046;6.406;2022-09-02T12:28:20;1.80;;;0.70;;
29574;SDS011;16507;51.046;6.406;2022-09-02T12:33:32;1.10;;;0.73;;
29574;SDS011;16507;51.046;6.406;2022-09-02T12:36:00;11.35;;;1.02;;
29574;SDS011;16507;51.046;6.406;2022-09-02T12:38:41;4.45;;;0.63;;
29574;SDS011;16507;51.046;6.406;2022-09-02T12:51:57;4.35;;;1.17;;
29574;SDS011;16507;51.046;6.406;2022-09-02T12:54:47;8.23;;;0.52;;
29574;SDS011;16507;51.046;6.406;2022-09-02T12:57:17;1.67;;;0.70;;
29574;SDS011;16507;51.046;6.406;2022-09-02T12:59:44;1.05;;;0.65;;
29574;SDS011;16507;51.046;6.406;2022-09-02T13:10:49;9.10;;;0.70;;
29574;SDS011;16507;51.046;6.406;2022-09-02T13:22:24;5.57;;;0.80;;
29574;SDS011;16507;51.046;6.406;2022-09-02T13:31:15;6.72;;;0.60;;
29574;SDS011;16507;51.046;6.406;2022-09-02T13:34:03;5.07;;;0.70;;
29574;SDS011;16507;51.046;6.406;2022-09-02T13:36:38;4.72;;;0.80;;
29574;SDS011;16507;51.046;6.406;2022-09-02T13:39:21;6.75;;;0.80;;
29574;SDS011;16507;51.046;6.406;2022-09-02T13:41:50;0.95;;;0.55;;
29574;SDS011;16507;51.046;6.406;2022-09-02T13:44:20;6.63;;;0.77;;
29574;SDS011;16507;51.046;6.406;2022-09-02T13:46:48;8.10;;;1.10;;
29574;SDS011;16507;51.046;6.406;2022-09-02T13:49:21;1.35;;;0.55;;
29574;SDS011;16507;51.046;6.406;2022-09-02T13:51:52;1.20;;;0.40;;
29574;SDS011;16507;51.046;6.406;2022-09-02T13:54:25;6.05;;;0.70;;
29574;SDS011;16507;51.046;6.406;2022-09-02T13:56:57;3.60;;;0.85;;
29574;SDS011;16507;51.046;6.406;2022-09-02T13:59:32;0.98;;;0.60;;
29574;SDS011;16507;51.046;6.406;2022-09-02T14:01:58;4.88;;;0.63;;
29574;SDS011;16507;51.046;6.406;2022-09-02T14:04:30;1.67;;;0.50;;
29574;SDS011;16507;51.046;6.406;2022-09-02T14:06:59;3.08;;;0.70;;
29574;SDS011;16507;51.046;6.406;2022-09-02T14:09:25;4.50;;;0.82;;
29574;SDS011;16507;51.046;6.406;2022-09-02T14:11:55;1.25;;;0.90;;
29574;SDS011;16507;51.046;6.406;2022-09-02T14:14:23;2.65;;;0.60;;
29574;SDS011;16507;51.046;6.406;2022-09-02T14:16:50;5.45;;;0.77;;
29574;SDS011;16507;51.046;6.406;2022-09-02T14:24:13;6.97;;;0.90;;
29574;SDS011;16507;51.046;6.406;2022-09-02T14:26:44;12.27;;;1.10;;
29574;SDS011;16507;51.046;6.406;2022-09-02T14:29:14;5.45;;;0.75;;
29574;SDS011;16507;51.046;6.406;2022-09-02T14:31:41;1.65;;;0.73;;
29574;SDS011;16507;51.046;6.406;2022-09-02T14:40:11;6.78;;;0.50;;
29574;SDS011;16507;51.046;6.406;2022-09-02T14:42:46;5.47;;;0.77;;
29574;SDS011;16507;51.046;6.406;2022-09-02T14:45:23;6.90;;;0.70;;
29574;SDS011;16507;51.046;6.406;2022-09-02T14:47:54;0.68;;;0.63;;
29574;SDS011;16507;51.046;6.406;2022-09-02T14:50:22;8.43;;;0.70;;
29574;SDS011;16507;51.046;6.406;2022-09-02T14:52:54;8.07;;;0.60;;
29574;SDS011;16507;51.046;6.406;2022-09-02T14:55:44;1.65;;;0.52;;
29574;SDS011;16507;51.046;6.406;2022-09-02T14:58:18;12.25;;;0.82;;
29574;SDS011;16507;51.046;6.406;2022-09-02T15:00:46;13.68;;;0.80;;
29574;SDS011;16507;51.046;6.406;2022-09-02T15:03:16;27.88;;;1.88;;
29574;SDS011;16507;51.046;6.406;2022-09-02T15:05:43;4.70;;;0.90;;
29574;SDS011;16507;51.046;6.406;2022-09-02T15:08:09;2.53;;;0.80;;
29574;SDS011;16507;51.046;6.406;2022-09-02T15:10:36;2.53;;;0.67;;
29574;SDS011;16507;51.046;6.406;2022-09-02T15:13:04;2.08;;;0.80;;
29574;SDS011;16507;51.046;6.406;2022-09-02T15:15:32;5.88;;;0.82;;
29574;SDS011;16507;51.046;6.406;2022-09-02T15:17:57;4.65;;;0.70;;
29574;SDS011;16507;51.046;6.406;2022-09-02T15:20:23;9.57;;;0.77;;
29574;SDS011;16507;51.046;6.406;2022-09-02T15:22:50;0.63;;;0.60;;
29574;SDS011;16507;51.046;6.406;2022-09-02T15:25:17;2.28;;;0.80;;
29574;SDS011;16507;51.046;6.406;2022-09-02T15:27:43;3.13;;;0.60;;
29574;SDS011;16507;51.046;6.406;2022-09-02T15:30:09;6.05;;;1.08;;
29574;SDS011;16507;51.046;6.406;2022-09-02T15:32:35;0.70;;;0.70;;
29574;SDS011;16507;51.046;6.406;2022-09-02T15:35:02;1.30;;;0.68;;
29574;SDS011;16507;51.046;6.406;2022-09-02T15:37:28;2.25;;;0.50;;
29574;SDS011;16507;51.046;6.406;2022-09-02T15:39:54;2.67;;;0.82;;
29574;SDS011;16507;51.046;6.406;2022-09-02T15:42:20;2.30;;;0.68;;
29574;SDS011;16507;51.046;6.406;2022-09-02T15:44:46;7.45;;;0.77;;
29574;SDS011;16507;51.046;6.406;2022-09-02T15:47:11;1.75;;;0.70;;
29574;SDS011;16507;51.046;6.406;2022-09-02T15:49:37;4.30;;;0.70;;
29574;SDS011;16507;51.046;6.406;2022-09-02T15:52:03;12.55;;;1.25;;
29574;SDS011;16507;51.046;6.406;2022-09-02T15:54:30;2.42;;;0.80;;
29574;SDS011;16507;51.046;6.406;2022-09-02T15:56:56;2.72;;;0.70;;
29574;SDS011;16507;51.046;6.406;2022-09-02T15:59:22;1.13;;;0.70;;
29574;SDS011;16507;51.046;6.406;2022-09-02T16:01:50;2.30;;;0.75;;
29574;SDS011;16507;51.046;6.406;2022-09-02T16:04:19;3.83;;;0.70;;
29574;SDS011;16507;51.046;6.406;2022-09-02T16:06:45;3.72;;;0.68;;
29574;SDS011;16507;51.046;6.406;2022-09-02T16:09:13;3.85;;;0.80;;
29574;SDS011;16507;51.046;6.406;2022-09-02T16:11:41;6.97;;;0.98;;
29574;SDS011;16507;51.046;6.406;2022-09-02T16:14:10;1.65;;;0.75;;
29574;SDS011;16507;51.046;6.406;2022-09-02T16:16:36;2.30;;;0.75;;
29574;SDS011;16507;51.046;6.406;2022-09-02T16:19:03;3.05;;;0.70;;
29574;SDS011;16507;51.046;6.406;2022-09-02T16:21:29;5.40;;;0.85;;
29574;SDS011;16507;51.046;6.406;2022-09-02T16:23:55;3.85;;;0.82;;
29574;SDS011;16507;51.046;6.406;2022-09-02T16:28:58;7.25;;;0.98;;
29574;SDS011;16507;51.046;6.406;2022-09-02T16:31:29;4.03;;;0.70;;
29574;SDS011;16507;51.046;6.406;2022-09-02T16:34:00;1.58;;;0.50;;
29574;SDS011;16507;51.046;6.406;2022-09-02T16:36:34;2.97;;;0.63;;
29574;SDS011;16507;51.046;6.406;2022-09-02T16:39:02;1.60;;;0.77;;
29574;SDS011;16507;51.046;6.406;2022-09-02T16:41:30;4.70;;;0.70;;
29574;SDS011;16507;51.046;6.406;2022-09-02T16:43:58;4.22;;;0.60;;
29574;SDS011;16507;51.046;6.406;2022-09-02T16:46:26;4.00;;;0.70;;
29574;SDS011;16507;51.046;6.406;2022-09-02T16:48:53;6.13;;;0.80;;
29574;SDS011;16507;51.046;6.406;2022-09-02T16:51:19;1.45;;;0.60;;
29574;SDS011;16507;51.046;6.406;2022-09-02T16:53:46;1.02;;;0.52;;
29574;SDS011;16507;51.046;6.406;2022-09-02T16:56:12;5.07;;;0.70;;
29574;SDS011;16507;51.046;6.406;2022-09-02T16:58:39;3.40;;;0.60;;
29574;SDS011;16507;51.046;6.406;2022-09-02T17:01:06;4.07;;;1.20;;
29574;SDS011;16507;51.046;6.406;2022-09-02T17:03:35;3.33;;;0.60;;
29574;SDS011;16507;51.046;6.406;2022-09-02T17:06:01;4.85;;;0.77;;
29574;SDS011;16507;51.046;6.406;2022-09-02T17:08:26;2.90;;;0.50;;